createdAt,value
2024-01-19T00:00:21.040Z,34.81
2024-01-19T00:00:51.759Z,34.81
2024-01-19T00:01:22.572Z,34.50
2024-01-19T00:01:53.201Z,34.70
2024-01-19T00:02:23.882Z,34.81
2024-01-19T00:02:54.529Z,34.70
2024-01-19T00:03:25.149Z,34.70
2024-01-19T00:03:55.831Z,34.81
2024-01-19T00:04:26.443Z,34.81
2024-01-19T00:04:57.139Z,34.81
2024-01-19T00:05:27.976Z,34.70
2024-01-19T00:05:58.737Z,34.70
2024-01-19T00:06:29.436Z,34.70
2024-01-19T00:07:00.137Z,34.81
2024-01-19T00:07:30.780Z,34.70
2024-01-19T00:08:01.504Z,34.81
2024-01-19T00:08:32.193Z,34.81
2024-01-19T00:09:02.776Z,34.81
2024-01-19T00:09:33.433Z,34.61
2024-01-19T00:10:04.110Z,34.70
2024-01-19T00:10:34.765Z,34.81
2024-01-19T00:11:05.459Z,34.81
2024-01-19T00:11:36.157Z,34.61
2024-01-19T00:12:06.765Z,34.70
2024-01-19T00:12:37.556Z,34.70
2024-01-19T00:13:08.209Z,34.81
2024-01-19T00:13:38.817Z,34.70
2024-01-19T00:14:09.527Z,34.61
2024-01-19T00:14:40.179Z,34.50
2024-01-19T00:15:10.777Z,34.61
2024-01-19T00:15:43.028Z,34.70
2024-01-19T00:16:12.404Z,34.50
2024-01-19T00:16:43.039Z,34.50
2024-01-19T00:17:13.763Z,34.70
2024-01-19T00:17:44.438Z,34.70
2024-01-19T00:18:15.183Z,34.50
2024-01-19T00:18:45.842Z,34.70
2024-01-19T00:19:16.492Z,34.70
2024-01-19T00:19:47.130Z,34.61
2024-01-19T00:20:17.802Z,34.61
2024-01-19T00:20:48.477Z,34.70
2024-01-19T00:21:19.130Z,34.81
2024-01-19T00:21:49.790Z,34.81
2024-01-19T00:22:20.439Z,34.61
2024-01-19T00:22:51.081Z,34.61
2024-01-19T00:23:21.747Z,34.70
2024-01-19T00:23:52.510Z,34.70
2024-01-19T00:24:23.153Z,34.61
2024-01-19T00:24:53.824Z,34.70
2024-01-19T00:25:24.430Z,34.81
2024-01-19T00:25:55.116Z,34.50
2024-01-19T00:26:25.864Z,34.61
2024-01-19T00:26:56.549Z,34.61
2024-01-19T00:27:27.214Z,34.70
2024-01-19T00:27:57.838Z,34.70
2024-01-19T00:28:28.489Z,34.70
2024-01-19T00:28:59.182Z,34.50
2024-01-19T00:29:29.853Z,34.70
2024-01-19T00:30:00.548Z,34.61
2024-01-19T00:30:31.236Z,34.70
2024-01-19T00:31:01.930Z,34.61
2024-01-19T00:31:32.594Z,34.61
2024-01-19T00:32:03.216Z,34.70
2024-01-19T00:32:33.980Z,34.81
2024-01-19T00:33:04.668Z,34.81
2024-01-19T00:33:35.309Z,34.81
2024-01-19T00:34:05.962Z,34.61
2024-01-19T00:34:36.624Z,34.70
2024-01-19T00:35:07.256Z,34.70
2024-01-19T00:35:37.967Z,34.70
2024-01-19T00:36:08.803Z,34.81
2024-01-19T00:36:39.399Z,34.61
2024-01-19T00:37:10.064Z,34.70
2024-01-19T00:37:40.714Z,34.50
2024-01-19T00:38:11.352Z,34.61
2024-01-19T00:38:42.010Z,34.30
2024-01-19T00:39:12.636Z,34.50
2024-01-19T00:39:43.291Z,34.61
2024-01-19T00:40:13.933Z,34.70
2024-01-19T00:40:44.580Z,34.61
2024-01-19T00:41:15.258Z,34.61
2024-01-19T00:41:45.961Z,34.50
2024-01-19T00:42:16.623Z,34.30
2024-01-19T00:42:47.248Z,34.50
2024-01-19T00:43:17.898Z,34.61
2024-01-19T00:43:48.524Z,34.61
2024-01-19T00:44:19.254Z,34.50
2024-01-19T00:44:49.925Z,34.61
2024-01-19T00:45:20.537Z,34.50
2024-01-19T00:45:51.204Z,34.50
2024-01-19T00:46:21.902Z,34.61
2024-01-19T00:46:52.549Z,34.50
2024-01-19T00:47:23.213Z,34.61
2024-01-19T00:47:53.946Z,34.61
2024-01-19T00:48:24.652Z,34.50
2024-01-19T00:48:55.428Z,34.50
2024-01-19T00:49:26.071Z,34.50
2024-01-19T00:49:56.691Z,34.61
2024-01-19T00:50:27.365Z,34.50
2024-01-19T00:50:58.022Z,34.50
2024-01-19T00:51:28.697Z,34.50
2024-01-19T00:51:59.353Z,34.52
2024-01-19T00:52:29.985Z,34.50
2024-01-19T00:53:00.635Z,34.61
2024-01-19T00:53:31.322Z,34.52
2024-01-19T00:54:01.979Z,34.52
2024-01-19T00:54:32.618Z,34.50
2024-01-19T00:55:03.275Z,34.50
2024-01-19T00:55:33.899Z,34.52
2024-01-19T00:56:04.558Z,34.52
2024-01-19T00:56:35.300Z,34.52
2024-01-19T00:57:05.902Z,34.52
2024-01-19T00:57:36.560Z,34.62
2024-01-19T00:58:07.200Z,34.50
2024-01-19T00:58:37.869Z,34.52
2024-01-19T00:59:08.538Z,34.62
2024-01-19T00:59:39.233Z,34.62
2024-01-19T01:00:09.834Z,34.62
2024-01-19T01:00:40.542Z,34.52
2024-01-19T01:01:11.201Z,34.52
2024-01-19T01:01:41.868Z,34.52
2024-01-19T01:02:12.601Z,34.52
2024-01-19T01:02:43.308Z,34.52
2024-01-19T01:03:13.977Z,34.52
2024-01-19T01:03:44.638Z,34.32
2024-01-19T01:04:15.299Z,34.52
2024-01-19T01:04:45.935Z,34.52
2024-01-19T01:05:16.636Z,34.52
2024-01-19T01:05:47.370Z,34.52
2024-01-19T01:06:18.115Z,34.42
2024-01-19T01:06:48.965Z,34.42
2024-01-19T01:07:19.578Z,34.42
2024-01-19T01:07:50.824Z,34.42
2024-01-19T01:08:20.981Z,34.52
2024-01-19T01:08:51.721Z,34.52
2024-01-19T01:09:22.367Z,34.52
2024-01-19T01:09:53.034Z,34.32
2024-01-19T01:10:23.655Z,34.52
2024-01-19T01:10:54.322Z,34.52
2024-01-19T01:11:24.984Z,34.52
2024-01-19T01:11:55.952Z,34.52
2024-01-19T01:12:26.793Z,34.52
2024-01-19T01:12:57.685Z,34.52
2024-01-19T01:13:28.559Z,34.52
2024-01-19T01:13:59.445Z,34.52
2024-01-19T01:14:30.372Z,34.62
2024-01-19T01:15:01.263Z,34.42
2024-01-19T01:15:32.096Z,34.52
2024-01-19T01:16:03.124Z,34.52
2024-01-19T01:16:33.519Z,34.52
2024-01-19T01:17:04.421Z,34.52
2024-01-19T01:17:35.393Z,34.42
2024-01-19T01:18:06.050Z,34.42
2024-01-19T01:18:36.714Z,34.52
2024-01-19T01:19:07.235Z,34.52
2024-01-19T01:19:38.208Z,34.52
2024-01-19T01:20:08.653Z,34.52
2024-01-19T01:20:39.798Z,34.52
2024-01-19T01:21:10.200Z,34.52
2024-01-19T01:21:40.909Z,34.52
2024-01-19T01:22:11.751Z,34.52
2024-01-19T01:22:42.397Z,34.52
2024-01-19T01:23:13.047Z,34.52
2024-01-19T01:23:43.735Z,34.52
2024-01-19T01:24:14.365Z,34.52
2024-01-19T01:24:45.027Z,34.42
2024-01-19T01:25:15.666Z,34.42
2024-01-19T01:25:46.310Z,34.42
2024-01-19T01:26:16.997Z,34.42
2024-01-19T01:26:47.668Z,34.52
2024-01-19T01:27:18.325Z,34.52
2024-01-19T01:27:48.989Z,34.52
2024-01-19T01:28:19.642Z,34.52
2024-01-19T01:28:50.292Z,34.52
2024-01-19T01:29:20.948Z,34.52
2024-01-19T01:29:51.659Z,34.52
2024-01-19T01:30:22.297Z,34.52
2024-01-19T01:30:52.961Z,34.42
2024-01-19T01:31:23.613Z,34.52
2024-01-19T01:31:54.282Z,34.52
2024-01-19T01:32:25.098Z,34.52
2024-01-19T01:32:55.830Z,34.52
2024-01-19T01:33:26.559Z,34.52
2024-01-19T01:33:57.289Z,34.42
2024-01-19T01:34:27.953Z,34.42
2024-01-19T01:34:58.595Z,34.42
2024-01-19T01:35:29.266Z,34.52
2024-01-19T01:35:59.897Z,34.52
2024-01-19T01:36:30.524Z,34.42
2024-01-19T01:37:01.180Z,34.52
2024-01-19T01:37:31.872Z,34.42
2024-01-19T01:38:02.521Z,34.42
2024-01-19T01:38:33.200Z,34.42
2024-01-19T01:39:03.939Z,34.52
2024-01-19T01:39:34.630Z,34.42
2024-01-19T01:40:05.279Z,34.42
2024-01-19T01:40:35.919Z,34.52
2024-01-19T01:41:06.564Z,34.42
2024-01-19T01:41:37.253Z,34.52
2024-01-19T01:42:07.903Z,34.52
2024-01-19T01:42:38.588Z,34.52
2024-01-19T01:43:09.230Z,34.42
2024-01-19T01:43:39.878Z,34.42
2024-01-19T01:44:10.521Z,34.42
2024-01-19T01:44:41.207Z,34.52
2024-01-19T01:45:11.820Z,34.42
2024-01-19T01:45:42.472Z,34.42
2024-01-19T01:46:13.108Z,34.52
2024-01-19T01:46:46.906Z,34.52
2024-01-19T01:47:14.359Z,34.42
2024-01-19T01:47:45.134Z,34.52
2024-01-19T01:48:15.925Z,34.52
2024-01-19T01:48:46.793Z,34.42
2024-01-19T01:49:18.337Z,34.42
2024-01-19T01:49:48.225Z,34.52
2024-01-19T01:50:18.994Z,34.42
2024-01-19T01:50:49.767Z,34.42
2024-01-19T01:51:20.363Z,34.32
2024-01-19T01:51:51.014Z,34.42
2024-01-19T01:52:21.648Z,34.42
2024-01-19T01:52:52.354Z,34.42
2024-01-19T01:53:23.056Z,34.42
2024-01-19T01:53:53.724Z,34.42
2024-01-19T01:54:24.386Z,34.42
2024-01-19T01:54:55.048Z,34.42
2024-01-19T01:55:25.694Z,34.42
2024-01-19T01:55:56.349Z,34.42
2024-01-19T01:56:27.051Z,34.42
2024-01-19T01:56:57.689Z,34.32
2024-01-19T01:57:28.311Z,34.42
2024-01-19T01:57:59.008Z,34.52
2024-01-19T01:58:29.680Z,34.52
2024-01-19T01:59:00.308Z,34.42
2024-01-19T01:59:30.982Z,34.42
2024-01-19T02:00:01.695Z,34.42
2024-01-19T02:00:32.342Z,34.42
2024-01-19T02:01:02.996Z,34.42
2024-01-19T02:01:33.601Z,34.42
2024-01-19T02:02:04.246Z,34.42
2024-01-19T02:02:34.898Z,34.42
2024-01-19T02:03:05.638Z,34.42
2024-01-19T02:03:36.274Z,34.32
2024-01-19T02:04:06.930Z,34.42
2024-01-19T02:04:37.584Z,34.42
2024-01-19T02:05:08.326Z,34.42
2024-01-19T02:05:39.196Z,34.42
2024-01-19T02:06:10.077Z,34.32
2024-01-19T02:06:40.944Z,34.22
2024-01-19T02:07:11.893Z,34.32
2024-01-19T02:07:42.909Z,34.22
2024-01-19T02:08:13.351Z,34.42
2024-01-19T02:08:43.987Z,34.42
2024-01-19T02:09:14.714Z,34.32
2024-01-19T02:09:45.334Z,34.32
2024-01-19T02:10:15.972Z,34.32
2024-01-19T02:10:46.642Z,34.32
2024-01-19T02:11:17.298Z,34.32
2024-01-19T02:11:47.961Z,34.32
2024-01-19T02:12:18.593Z,34.42
2024-01-19T02:12:49.239Z,34.42
2024-01-19T02:13:19.924Z,34.42
2024-01-19T02:13:50.566Z,34.22
2024-01-19T02:14:21.246Z,34.32
2024-01-19T02:14:51.999Z,34.32
2024-01-19T02:15:22.669Z,34.32
2024-01-19T02:15:53.316Z,34.32
2024-01-19T02:16:23.972Z,34.22
2024-01-19T02:16:54.613Z,34.22
2024-01-19T02:17:25.401Z,34.32
2024-01-19T02:17:56.247Z,34.32
2024-01-19T02:18:27.042Z,34.32
2024-01-19T02:18:57.800Z,34.42
2024-01-19T02:19:28.562Z,34.22
2024-01-19T02:19:59.232Z,34.32
2024-01-19T02:20:29.919Z,34.22
2024-01-19T02:21:00.551Z,34.32
2024-01-19T02:21:31.169Z,34.32
2024-01-19T02:22:01.819Z,34.32
2024-01-19T02:22:32.529Z,34.42
2024-01-19T02:23:03.170Z,34.32
2024-01-19T02:23:33.885Z,34.32
2024-01-19T02:24:04.524Z,34.32
2024-01-19T02:24:35.164Z,34.42
2024-01-19T02:25:05.806Z,34.32
2024-01-19T02:25:36.466Z,34.32
2024-01-19T02:26:07.104Z,34.32
2024-01-19T02:26:37.768Z,34.32
2024-01-19T02:27:08.409Z,34.42
2024-01-19T02:27:39.071Z,34.32
2024-01-19T02:28:09.716Z,34.32
2024-01-19T02:28:40.414Z,34.32
2024-01-19T02:29:11.032Z,34.32
2024-01-19T02:29:41.725Z,34.32
2024-01-19T02:30:12.369Z,34.32
2024-01-19T02:30:42.988Z,34.32
2024-01-19T02:31:13.664Z,34.42
2024-01-19T02:31:44.306Z,34.32
2024-01-19T02:32:14.983Z,34.32
2024-01-19T02:32:45.695Z,34.42
2024-01-19T02:33:16.441Z,34.32
2024-01-19T02:33:47.090Z,34.32
2024-01-19T02:34:17.733Z,34.32
2024-01-19T02:34:48.468Z,34.42
2024-01-19T02:35:19.081Z,34.42
2024-01-19T02:35:49.815Z,34.32
2024-01-19T02:36:20.452Z,34.32
2024-01-19T02:36:51.102Z,34.32
2024-01-19T02:37:21.756Z,34.32
2024-01-19T02:37:52.377Z,34.32
2024-01-19T02:38:23.104Z,34.42
2024-01-19T02:38:53.813Z,34.32
2024-01-19T02:39:24.423Z,34.32
2024-01-19T02:39:55.069Z,34.32
2024-01-19T02:40:25.712Z,34.42
2024-01-19T02:40:56.364Z,34.42
2024-01-19T02:41:27.054Z,34.32
2024-01-19T02:41:57.735Z,34.32
2024-01-19T02:42:28.342Z,34.32
2024-01-19T02:42:58.984Z,34.32
2024-01-19T02:43:29.621Z,34.32
2024-01-19T02:44:00.324Z,34.32
2024-01-19T02:44:31.014Z,34.32
2024-01-19T02:45:01.686Z,34.32
2024-01-19T02:45:32.319Z,34.32
2024-01-19T02:46:02.981Z,34.32
2024-01-19T02:46:33.614Z,34.32
2024-01-19T02:47:04.269Z,34.32
2024-01-19T02:47:35.870Z,34.32
2024-01-19T02:48:05.988Z,34.22
2024-01-19T02:48:36.698Z,34.22
2024-01-19T02:49:07.417Z,34.32
2024-01-19T02:49:38.069Z,34.32
2024-01-19T02:50:08.717Z,34.32
2024-01-19T02:50:39.364Z,34.32
2024-01-19T02:51:10.009Z,34.32
2024-01-19T02:51:40.649Z,34.32
2024-01-19T02:52:11.302Z,34.32
2024-01-19T02:52:42.031Z,34.32
2024-01-19T02:53:12.677Z,34.42
2024-01-19T02:53:43.321Z,34.32
2024-01-19T02:54:14.022Z,34.32
2024-01-19T02:54:44.712Z,34.22
2024-01-19T02:55:15.320Z,34.32
2024-01-19T02:55:45.967Z,34.32
2024-01-19T02:56:16.682Z,34.32
2024-01-19T02:56:47.365Z,34.22
2024-01-19T02:57:17.987Z,34.22
2024-01-19T02:57:48.633Z,34.32
2024-01-19T02:58:19.295Z,34.32
2024-01-19T02:58:49.934Z,34.32
2024-01-19T02:59:20.651Z,34.32
2024-01-19T02:59:51.340Z,34.32
2024-01-19T03:00:21.972Z,34.32
2024-01-19T03:00:52.634Z,34.32
2024-01-19T03:01:23.283Z,34.42
2024-01-19T03:01:53.923Z,34.42
2024-01-19T03:02:24.594Z,34.32
2024-01-19T03:02:55.246Z,34.32
2024-01-19T03:03:25.879Z,34.32
2024-01-19T03:03:56.559Z,34.32
2024-01-19T03:04:27.260Z,34.22
2024-01-19T03:04:57.942Z,34.22
2024-01-19T03:05:28.567Z,34.32
2024-01-19T03:05:59.282Z,34.32
2024-01-19T03:06:29.945Z,34.22
2024-01-19T03:07:00.600Z,34.22
2024-01-19T03:07:31.247Z,34.32
2024-01-19T03:08:01.913Z,34.32
2024-01-19T03:08:32.579Z,34.32
2024-01-19T03:09:03.188Z,34.32
2024-01-19T03:09:33.856Z,34.32
2024-01-19T03:10:04.480Z,34.32
2024-01-19T03:10:35.138Z,34.32
2024-01-19T03:11:05.811Z,34.22
2024-01-19T03:11:36.465Z,34.32
2024-01-19T03:12:08.425Z,34.32
2024-01-19T03:12:37.686Z,34.22
2024-01-19T03:13:08.332Z,34.22
2024-01-19T03:13:38.942Z,34.32
2024-01-19T03:14:09.596Z,34.22
2024-01-19T03:14:40.337Z,34.22
2024-01-19T03:15:10.989Z,34.22
2024-01-19T03:15:41.595Z,34.22
2024-01-19T03:16:12.245Z,34.22
2024-01-19T03:16:42.884Z,34.22
2024-01-19T03:17:13.707Z,34.22
2024-01-19T03:17:44.405Z,34.22
2024-01-19T03:18:15.116Z,34.22
2024-01-19T03:18:45.882Z,34.22
2024-01-19T03:19:16.541Z,34.22
2024-01-19T03:19:47.303Z,34.22
2024-01-19T03:20:17.974Z,34.22
2024-01-19T03:20:48.621Z,34.22
2024-01-19T03:21:19.221Z,34.22
2024-01-19T03:21:49.864Z,34.22
2024-01-19T03:22:20.514Z,34.22
2024-01-19T03:22:51.135Z,34.22
2024-01-19T03:23:21.792Z,34.22
2024-01-19T03:23:52.513Z,34.22
2024-01-19T03:24:23.150Z,34.22
2024-01-19T03:24:53.832Z,34.22
2024-01-19T03:25:24.471Z,34.22
2024-01-19T03:25:55.102Z,34.23
2024-01-19T03:26:25.784Z,34.22
2024-01-19T03:26:56.502Z,34.22
2024-01-19T03:27:27.184Z,34.22
2024-01-19T03:27:57.818Z,34.22
2024-01-19T03:28:28.424Z,34.23
2024-01-19T03:28:59.081Z,34.12
2024-01-19T03:29:29.764Z,34.22
2024-01-19T03:30:00.491Z,34.23
2024-01-19T03:30:31.128Z,34.22
2024-01-19T03:31:01.768Z,34.23
2024-01-19T03:31:32.452Z,34.22
2024-01-19T03:32:03.109Z,34.12
2024-01-19T03:32:33.868Z,34.23
2024-01-19T03:33:04.679Z,34.22
2024-01-19T03:33:35.386Z,34.23
2024-01-19T03:34:06.056Z,34.22
2024-01-19T03:34:36.829Z,34.23
2024-01-19T03:35:07.555Z,34.12
2024-01-19T03:35:38.211Z,34.22
2024-01-19T03:36:08.922Z,34.22
2024-01-19T03:36:39.533Z,34.22
2024-01-19T03:37:10.167Z,34.22
2024-01-19T03:37:40.838Z,34.23
2024-01-19T03:38:11.474Z,34.22
2024-01-19T03:38:42.127Z,34.23
2024-01-19T03:39:12.743Z,34.12
2024-01-19T03:39:43.395Z,34.23
2024-01-19T03:40:14.079Z,34.23
2024-01-19T03:40:44.724Z,34.22
2024-01-19T03:41:15.363Z,34.22
2024-01-19T03:41:46.051Z,34.22
2024-01-19T03:42:16.714Z,34.22
2024-01-19T03:42:47.455Z,34.13
2024-01-19T03:43:18.158Z,34.23
2024-01-19T03:43:48.780Z,34.12
2024-01-19T03:44:19.455Z,34.12
2024-01-19T03:44:50.115Z,34.12
2024-01-19T03:45:20.775Z,34.13
2024-01-19T03:45:51.452Z,34.13
2024-01-19T03:46:22.118Z,34.13
2024-01-19T03:46:52.760Z,34.23
2024-01-19T03:47:23.501Z,34.23
2024-01-19T03:47:54.180Z,34.22
2024-01-19T03:48:24.950Z,34.13
2024-01-19T03:48:55.636Z,34.13
2024-01-19T03:49:26.350Z,34.22
2024-01-19T03:49:56.984Z,34.12
2024-01-19T03:50:27.679Z,34.12
2024-01-19T03:50:58.353Z,34.23
2024-01-19T03:51:28.972Z,34.22
2024-01-19T03:51:59.639Z,34.23
2024-01-19T03:52:30.303Z,34.23
2024-01-19T03:53:00.974Z,34.13
2024-01-19T03:53:31.684Z,34.23
2024-01-19T03:54:02.350Z,34.22
2024-01-19T03:54:32.980Z,34.13
2024-01-19T03:55:03.640Z,34.22
2024-01-19T03:55:34.302Z,34.23
2024-01-19T03:56:04.971Z,34.23
2024-01-19T03:56:35.701Z,34.23
2024-01-19T03:57:06.318Z,34.22
2024-01-19T03:57:36.959Z,34.22
2024-01-19T03:58:07.594Z,34.23
2024-01-19T03:58:38.248Z,34.23
2024-01-19T03:59:08.884Z,34.23
2024-01-19T03:59:39.561Z,34.23
2024-01-19T04:00:10.190Z,34.23
2024-01-19T04:00:41.209Z,34.23
2024-01-19T04:01:11.885Z,34.13
2024-01-19T04:01:42.499Z,34.22
2024-01-19T04:02:13.161Z,34.23
2024-01-19T04:02:43.961Z,34.22
2024-01-19T04:03:14.872Z,34.23
2024-01-19T04:03:45.690Z,34.23
2024-01-19T04:04:16.405Z,34.23
2024-01-19T04:04:47.123Z,34.13
2024-01-19T04:05:17.923Z,34.13
2024-01-19T04:05:48.758Z,34.13
2024-01-19T04:06:19.551Z,34.23
2024-01-19T04:06:50.193Z,34.23
2024-01-19T04:07:20.833Z,34.23
2024-01-19T04:07:51.469Z,34.13
2024-01-19T04:08:22.156Z,34.23
2024-01-19T04:08:52.855Z,34.23
2024-01-19T04:09:23.490Z,34.13
2024-01-19T04:09:54.117Z,34.13
2024-01-19T04:10:24.769Z,34.13
2024-01-19T04:10:55.465Z,34.13
2024-01-19T04:11:26.145Z,34.23
2024-01-19T04:11:56.789Z,34.13
2024-01-19T04:12:27.452Z,34.23
2024-01-19T04:12:58.093Z,34.13
2024-01-19T04:13:28.760Z,34.23
2024-01-19T04:13:59.386Z,34.13
2024-01-19T04:14:30.152Z,34.13
2024-01-19T04:15:00.939Z,34.13
2024-01-19T04:15:31.564Z,34.13
2024-01-19T04:16:02.233Z,34.13
2024-01-19T04:16:32.874Z,34.13
2024-01-19T04:17:03.506Z,34.23
2024-01-19T04:17:34.227Z,34.23
2024-01-19T04:18:04.974Z,34.13
2024-01-19T04:18:35.912Z,34.23
2024-01-19T04:19:06.712Z,34.23
2024-01-19T04:19:37.498Z,34.23
2024-01-19T04:20:08.149Z,34.13
2024-01-19T04:20:38.818Z,34.23
2024-01-19T04:21:09.563Z,34.13
2024-01-19T04:21:40.218Z,34.13
2024-01-19T04:22:10.876Z,34.13
2024-01-19T04:22:41.508Z,34.13
2024-01-19T04:23:12.152Z,34.23
2024-01-19T04:23:42.834Z,34.13
2024-01-19T04:24:13.520Z,34.13
2024-01-19T04:24:44.129Z,34.23
2024-01-19T04:25:14.778Z,34.23
2024-01-19T04:25:45.458Z,34.13
2024-01-19T04:26:16.129Z,34.13
2024-01-19T04:26:46.793Z,34.23
2024-01-19T04:27:17.426Z,34.13
2024-01-19T04:27:48.074Z,34.23
2024-01-19T04:28:18.809Z,34.13
2024-01-19T04:28:49.471Z,34.23
2024-01-19T04:29:20.117Z,34.23
2024-01-19T04:29:50.774Z,34.23
2024-01-19T04:30:21.404Z,34.13
2024-01-19T04:30:52.092Z,34.23
2024-01-19T04:31:22.824Z,34.23
2024-01-19T04:31:53.482Z,34.13
2024-01-19T04:32:24.193Z,34.13
2024-01-19T04:32:54.928Z,34.13
2024-01-19T04:33:25.762Z,34.13
2024-01-19T04:33:57.830Z,34.13
2024-01-19T04:34:27.311Z,34.13
2024-01-19T04:34:57.930Z,34.13
2024-01-19T04:35:28.595Z,34.13
2024-01-19T04:35:59.288Z,34.13
2024-01-19T04:36:30.006Z,34.23
2024-01-19T04:37:00.755Z,34.23
2024-01-19T04:37:31.400Z,34.13
2024-01-19T04:38:02.057Z,34.13
2024-01-19T04:38:32.686Z,34.23
2024-01-19T04:39:03.338Z,34.23
2024-01-19T04:39:33.958Z,34.23
2024-01-19T04:40:04.640Z,34.23
2024-01-19T04:40:35.284Z,34.23
2024-01-19T04:41:05.965Z,34.13
2024-01-19T04:41:36.691Z,34.13
2024-01-19T04:42:07.290Z,34.13
2024-01-19T04:42:37.935Z,34.13
2024-01-19T04:43:08.732Z,34.13
2024-01-19T04:43:39.396Z,34.13
2024-01-19T04:44:10.036Z,34.13
2024-01-19T04:44:40.767Z,34.13
2024-01-19T04:45:11.350Z,34.13
2024-01-19T04:45:42.022Z,34.03
2024-01-19T04:46:12.647Z,34.13
2024-01-19T04:46:43.352Z,34.13
2024-01-19T04:47:13.985Z,34.13
2024-01-19T04:47:44.692Z,34.13
2024-01-19T04:48:15.394Z,34.13
2024-01-19T04:48:46.215Z,34.13
2024-01-19T04:49:16.941Z,34.13
2024-01-19T04:49:47.560Z,34.03
2024-01-19T04:50:18.238Z,34.13
2024-01-19T04:50:48.934Z,34.13
2024-01-19T04:51:19.540Z,34.13
2024-01-19T04:51:50.213Z,34.13
2024-01-19T04:52:20.853Z,34.13
2024-01-19T04:52:51.534Z,34.13
2024-01-19T04:53:22.154Z,34.13
2024-01-19T04:53:52.855Z,34.13
2024-01-19T04:54:23.480Z,34.13
2024-01-19T04:54:54.117Z,34.03
2024-01-19T04:55:24.787Z,34.03
2024-01-19T04:55:55.430Z,34.03
2024-01-19T04:56:26.098Z,34.13
2024-01-19T04:56:56.801Z,34.13
2024-01-19T04:57:27.415Z,34.13
2024-01-19T04:57:58.074Z,34.13
2024-01-19T04:58:28.724Z,34.13
2024-01-19T04:58:59.389Z,34.13
2024-01-19T04:59:30.042Z,34.03
2024-01-19T05:00:00.852Z,34.03
2024-01-19T05:00:31.617Z,34.03
2024-01-19T05:01:02.278Z,34.03
2024-01-19T05:01:32.902Z,34.03
2024-01-19T05:02:03.622Z,34.03
2024-01-19T05:02:34.537Z,34.13
2024-01-19T05:03:05.303Z,34.13
2024-01-19T05:03:35.961Z,34.13
2024-01-19T05:04:06.594Z,34.13
2024-01-19T05:04:37.254Z,34.03
2024-01-19T05:05:07.871Z,34.12
2024-01-19T05:05:38.691Z,34.13
2024-01-19T05:06:09.397Z,34.03
2024-01-19T05:06:40.160Z,34.13
2024-01-19T05:07:10.839Z,34.03
2024-01-19T05:07:41.499Z,34.13
2024-01-19T05:08:12.153Z,34.13
2024-01-19T05:08:42.888Z,34.13
2024-01-19T05:09:13.488Z,34.13
2024-01-19T05:09:44.131Z,34.13
2024-01-19T05:10:14.786Z,34.13
2024-01-19T05:10:45.446Z,34.13
2024-01-19T05:11:16.085Z,34.13
2024-01-19T05:11:46.830Z,34.13
2024-01-19T05:12:17.471Z,34.13
2024-01-19T05:12:48.119Z,34.03
2024-01-19T05:13:18.770Z,34.03
2024-01-19T05:13:49.409Z,34.13
2024-01-19T05:14:20.108Z,34.13
2024-01-19T05:14:50.883Z,34.03
2024-01-19T05:15:23.571Z,34.03
2024-01-19T05:15:52.338Z,34.03
2024-01-19T05:16:22.996Z,34.03
2024-01-19T05:16:53.648Z,34.03
2024-01-19T05:17:24.360Z,34.03
2024-01-19T05:17:55.083Z,34.13
2024-01-19T05:18:25.839Z,34.03
2024-01-19T05:18:56.482Z,34.03
2024-01-19T05:19:27.236Z,34.03
2024-01-19T05:19:57.898Z,34.03
2024-01-19T05:20:28.532Z,34.03
2024-01-19T05:20:59.295Z,34.03
2024-01-19T05:21:29.948Z,34.03
2024-01-19T05:22:00.588Z,34.03
2024-01-19T05:22:31.272Z,34.03
2024-01-19T05:23:01.953Z,34.03
2024-01-19T05:23:32.674Z,34.03
2024-01-19T05:24:03.385Z,34.03
2024-01-19T05:24:34.113Z,34.03
2024-01-19T05:25:04.747Z,33.93
2024-01-19T05:25:35.447Z,34.03
2024-01-19T05:26:06.264Z,34.03
2024-01-19T05:26:36.918Z,34.03
2024-01-19T05:27:07.537Z,34.03
2024-01-19T05:27:38.227Z,34.03
2024-01-19T05:28:08.873Z,34.03
2024-01-19T05:28:39.526Z,34.03
2024-01-19T05:29:10.176Z,34.03
2024-01-19T05:29:40.831Z,34.03
2024-01-19T05:30:11.477Z,34.03
2024-01-19T05:30:42.121Z,34.03
2024-01-19T05:31:12.755Z,34.03
2024-01-19T05:31:43.448Z,34.03
2024-01-19T05:32:14.078Z,33.93
2024-01-19T05:32:44.870Z,34.03
2024-01-19T05:33:15.609Z,34.03
2024-01-19T05:33:46.420Z,34.03
2024-01-19T05:34:17.263Z,34.03
2024-01-19T05:34:47.946Z,33.93
2024-01-19T05:35:18.572Z,34.03
2024-01-19T05:35:49.254Z,33.93
2024-01-19T05:36:19.869Z,34.01
2024-01-19T05:36:50.539Z,33.93
2024-01-19T05:37:21.188Z,33.93
2024-01-19T05:37:51.845Z,33.93
2024-01-19T05:38:22.519Z,34.03
2024-01-19T05:38:53.156Z,33.93
2024-01-19T05:39:23.796Z,33.93
2024-01-19T05:39:54.457Z,34.01
2024-01-19T05:40:25.110Z,34.03
2024-01-19T05:40:55.737Z,34.03
2024-01-19T05:41:26.495Z,33.93
2024-01-19T05:41:57.165Z,33.93
2024-01-19T05:42:27.797Z,33.93
2024-01-19T05:42:58.508Z,33.93
2024-01-19T05:43:29.154Z,34.03
2024-01-19T05:43:59.798Z,34.03
2024-01-19T05:44:30.462Z,34.03
2024-01-19T05:45:01.184Z,34.03
2024-01-19T05:45:31.836Z,34.03
2024-01-19T05:46:02.485Z,34.01
2024-01-19T05:46:33.212Z,33.73
2024-01-19T05:47:03.844Z,33.93
2024-01-19T05:47:34.542Z,33.93
2024-01-19T05:48:05.274Z,33.73
2024-01-19T05:48:36.011Z,33.73
2024-01-19T05:49:06.681Z,33.73
2024-01-19T05:49:37.443Z,33.83
2024-01-19T05:50:08.083Z,33.83
2024-01-19T05:50:38.765Z,33.93
2024-01-19T05:51:09.388Z,34.03
2024-01-19T05:51:40.020Z,34.03
2024-01-19T05:52:10.697Z,33.93
2024-01-19T05:52:41.312Z,33.93
2024-01-19T05:53:12.118Z,33.73
2024-01-19T05:53:42.734Z,33.81
2024-01-19T05:54:13.361Z,33.93
2024-01-19T05:54:43.996Z,33.83
2024-01-19T05:55:14.636Z,33.92
2024-01-19T05:55:45.305Z,33.83
2024-01-19T05:56:15.966Z,33.81
2024-01-19T05:56:46.629Z,33.93
2024-01-19T05:57:17.277Z,33.81
2024-01-19T05:57:47.959Z,34.03
2024-01-19T05:58:18.629Z,33.92
2024-01-19T05:58:49.407Z,33.93
2024-01-19T05:59:20.122Z,33.93
2024-01-19T05:59:50.871Z,34.01
2024-01-19T06:00:21.764Z,34.01
2024-01-19T06:00:52.465Z,34.13
2024-01-19T06:01:23.142Z,34.01
2024-01-19T06:01:53.782Z,34.12
2024-01-19T06:02:24.482Z,33.93
2024-01-19T06:02:55.084Z,33.92
2024-01-19T06:03:25.875Z,34.01
2024-01-19T06:03:56.480Z,34.01
2024-01-19T06:04:27.126Z,33.92
2024-01-19T06:04:57.801Z,34.12
2024-01-19T06:05:28.523Z,34.12
2024-01-19T06:05:59.205Z,34.01
2024-01-19T06:06:29.985Z,34.01
2024-01-19T06:07:00.614Z,34.12
2024-01-19T06:07:31.265Z,34.12
2024-01-19T06:08:01.916Z,34.13
2024-01-19T06:08:32.709Z,34.12
2024-01-19T06:09:03.421Z,34.01
2024-01-19T06:09:34.047Z,33.93
2024-01-19T06:10:04.689Z,34.01
2024-01-19T06:10:35.390Z,34.01
2024-01-19T06:11:06.005Z,33.92
2024-01-19T06:11:36.708Z,33.92
2024-01-19T06:12:07.334Z,34.01
2024-01-19T06:12:37.986Z,33.92
2024-01-19T06:13:08.585Z,34.03
2024-01-19T06:13:39.203Z,34.01
2024-01-19T06:14:09.775Z,34.12
2024-01-19T06:14:40.310Z,34.12
2024-01-19T06:15:10.831Z,34.01
2024-01-19T06:15:41.444Z,33.92
2024-01-19T06:16:11.989Z,33.72
2024-01-19T06:16:42.503Z,33.72
2024-01-19T06:17:13.102Z,33.81
2024-01-19T06:17:43.667Z,33.92
2024-01-19T06:18:14.776Z,34.01
2024-01-19T06:18:45.485Z,34.12
2024-01-19T06:19:16.105Z,34.01
2024-01-19T06:19:46.683Z,34.32
2024-01-19T06:20:17.192Z,34.42
2024-01-19T06:20:48.131Z,34.42
2024-01-19T06:21:18.674Z,34.42
2024-01-19T06:21:49.229Z,34.62
2024-01-19T06:22:19.766Z,34.32
2024-01-19T06:22:50.321Z,34.52
2024-01-19T06:23:20.895Z,34.52
2024-01-19T06:23:51.503Z,34.32
2024-01-19T06:24:22.239Z,34.52
2024-01-19T06:24:52.811Z,34.62
2024-01-19T06:25:23.308Z,34.52
2024-01-19T06:25:53.882Z,34.32
2024-01-19T06:26:24.480Z,34.42
2024-01-19T06:26:55.278Z,34.52
2024-01-19T06:27:25.810Z,34.82
2024-01-19T06:27:56.335Z,34.92
2024-01-19T06:28:26.892Z,34.62
2024-01-19T06:28:57.468Z,35.03
2024-01-19T06:29:28.044Z,35.23
2024-01-19T06:29:58.816Z,34.82
2024-01-19T06:30:29.386Z,35.13
2024-01-19T06:30:59.933Z,35.13
2024-01-19T06:31:30.464Z,35.03
2024-01-19T06:32:01.055Z,35.13
2024-01-19T06:32:31.614Z,35.33
2024-01-19T06:33:02.367Z,35.53
2024-01-19T06:33:33.160Z,35.53
2024-01-19T06:34:03.912Z,35.53
2024-01-19T06:34:34.449Z,35.43
2024-01-19T06:35:05.013Z,35.63